Decoded Metar for LFSB (MULHOUSE in FRANCE) (IATA:MLH) | Meteo·Mobile Aviation Weather
aviador You're here:

LFSB Decoded Metar

MULHOUSE in FRANCE
Report Time2019-07-19 18:30:00
UTC Time2019-07-19 18:43:08
Flight Rules vfr VFR
Wind300° at 04 kt
W.Decomp.*RWY 33: 3.4 kt HW 2.1 kt LCW
RWY 26: 3.1 kt HW 2.5 kt RCW
Visibility9999 m
Phenomena:N/A
Clouds:N/A
Expected CloudBase > 5,600 ft AGL from Temp-Dew spread
CeilingNone
Temp27°C (ISA +14)
Dew Point13°C (42% RH)
Heat Index27.0°C
AAT26.5°C
QNH1015 hPa
Density Alt2,612 ft
Elevation889 ft
Report Wrong Elevation
Raw Report
LFSB 191830Z 30004KT CAVOK 27/13 Q1015 NOSIG=

Extra information for LFSB:More info

Metar Taf Metar & Taf Last 4 Metars F.Rules Stats Wind Profile Meteogram Temp Stats Airport Information Weather charts Add Link Nearby VenuesMetar ALERT Operation Metar Decoded Social comments